Time;durP1;ratioP1;P1;durP2;ratioP2;P2;SDS_P1;SDS_P2;PMS_P1;PMS_P2;Temp;Humidity;BMP_temperature;BMP_pressure;BME280_temperature;BME280_humidity;BME280_pressure;Samples;Min_cycle;Max_cycle;Signal;HPM_P1;HPM_P2
2022/12/19 00:01:07;;;;;;;16.95;12.32;;;7.00;74.70;;;;;;6336327;22;20003;-81
2022/12/19 00:03:35;;;;;;;18.95;12.07;;;6.90;75.00;;;;;;6336163;22;20003;-81
2022/12/19 00:06:03;;;;;;;18.35;11.75;;;6.90;74.90;;;;;;6336190;22;19998;-81
2022/12/19 00:08:32;;;;;;;19.25;12.35;;;6.90;75.00;;;;;;6336117;22;20428;-81
2022/12/19 00:11:00;;;;;;;17.48;11.18;;;7.00;74.80;;;;;;6335928;22;20006;-81
2022/12/19 00:13:26;;;;;;;19.75;13.30;;;;;;;;;;6335297;22;20003;-81
2022/12/19 00:15:52;;;;;;;17.27;10.73;;;;;;;;;;6336255;22;20077;-81
2022/12/19 00:18:18;;;;;;;17.15;11.55;;;6.80;74.60;;;;;;6336529;22;20003;-81
2022/12/19 00:20:44;;;;;;;18.60;12.02;;;;;;;;;;6308307;22;20011;-80
2022/12/19 00:23:10;;;;;;;19.35;12.40;;;6.80;74.60;;;;;;6335748;22;20710;-80
2022/12/19 00:25:36;;;;;;;17.17;11.73;;;6.80;75.20;;;;;;6336803;22;20006;-81
2022/12/19 00:28:04;;;;;;;19.50;12.50;;;6.80;75.30;;;;;;6335875;22;20481;-82
2022/12/19 00:30:31;;;;;;;15.13;10.55;;;6.80;75.40;;;;;;6336071;22;20447;-82
2022/12/19 00:32:56;;;;;;;20.90;12.27;;;6.80;75.30;;;;;;6308654;22;20006;-82
2022/12/19 00:35:22;;;;;;;17.00;11.18;;;6.80;74.80;;;;;;6335017;22;20774;-82
2022/12/19 00:37:48;;;;;;;17.00;11.80;;;6.70;74.70;;;;;;6336887;22;20082;-82
2022/12/19 00:40:13;;;;;;;16.65;10.93;;;6.80;75.40;;;;;;6336047;22;20003;-82
2022/12/19 00:42:40;;;;;;;17.00;11.10;;;;;;;;;;6336945;22;20003;-82
2022/12/19 00:45:06;;;;;;;17.70;11.73;;;6.90;75.10;;;;;;6307467;22;19999;-82
2022/12/19 00:47:32;;;;;;;18.48;12.32;;;;;;;;;;6336421;22;19998;-82
2022/12/19 00:49:57;;;;;;;18.73;11.77;;;6.80;74.80;;;;;;6336562;22;20348;-83
2022/12/19 00:52:23;;;;;;;15.93;10.65;;;6.70;75.40;;;;;;6335824;22;20002;-83
2022/12/19 00:54:49;;;;;;;20.15;11.63;;;6.80;75.20;;;;;;6335836;22;20002;-84
2022/12/19 00:57:14;;;;;;;16.95;11.38;;;6.80;75.50;;;;;;6336671;22;20056;-83
2022/12/19 00:59:41;;;;;;;20.05;12.48;;;;;;;;;;6336006;22;20002;-83
2022/12/19 01:02:07;;;;;;;19.23;12.65;;;;;;;;;;6336285;22;20309;-83
2022/12/19 01:04:33;;;;;;;17.33;11.75;;;;;;;;;;6337703;22;19999;-83
2022/12/19 01:06:59;;;;;;;22.10;12.38;;;;;;;;;;6338990;22;20006;-83
2022/12/19 01:09:25;;;;;;;17.75;12.05;;;6.80;74.80;;;;;;6338681;22;19999;-82
2022/12/19 01:14:35;;;;;;;17.85;11.48;;;6.80;75.50;;;;;;6338110;22;20018;-83
2022/12/19 01:17:00;;;;;;;19.27;11.75;;;6.80;75.30;;;;;;6338455;22;20007;-84
2022/12/19 01:19:27;;;;;;;15.73;10.20;;;6.80;75.30;;;;;;6338272;22;19998;-83
2022/12/19 01:21:52;;;;;;;17.52;10.98;;;6.80;75.30;;;;;;6307803;22;20007;-84
2022/12/19 01:24:18;;;;;;;15.05;10.80;;;6.80;75.30;;;;;;6307127;22;20000;-83
2022/12/19 01:26:44;;;;;;;18.52;11.82;;;6.70;75.10;;;;;;6306634;22;20002;-82
2022/12/19 01:29:09;;;;;;;17.33;11.25;;;6.70;75.20;;;;;;6306500;22;20003;-82
2022/12/19 01:31:35;;;;;;;16.48;10.35;;;6.70;74.70;;;;;;6307009;22;20003;-83
2022/12/19 01:34:01;;;;;;;18.23;11.23;;;;;;;;;;6306394;22;20007;-82
2022/12/19 01:36:28;;;;;;;15.95;10.55;;;;;;;;;;6306244;22;20068;-82
2022/12/19 01:38:57;;;;;;;17.40;10.73;;;6.70;75.10;;;;;;6305624;22;20003;-82
2022/12/19 01:41:23;;;;;;;19.02;10.55;;;6.70;74.90;;;;;;6306062;22;19995;-83
2022/12/19 01:44:03;;;;;;;16.05;10.10;;;6.70;75.30;;;;;;6306043;22;20006;-83
2022/12/19 01:46:35;;;;;;;16.85;10.73;;;6.70;75.30;;;;;;6305715;22;20531;-82
2022/12/19 01:49:02;;;;;;;16.38;10.73;;;6.60;74.50;;;;;;6306701;22;20417;-82
2022/12/19 01:51:35;;;;;;;14.80;10.27;;;6.60;74.40;;;;;;6306856;22;20004;-82
2022/12/19 01:54:05;;;;;;;16.30;11.10;;;6.70;74.80;;;;;;6305204;22;20019;-81
2022/12/19 01:56:33;;;;;;;;;;;6.60;74.80;;;;;;6306844;22;20463;-80
2022/12/19 01:59:03;;;;;;;15.85;10.88;;;6.70;75.10;;;;;;6306704;22;19953;-82
2022/12/19 02:01:29;;;;;;;15.45;10.15;;;6.60;74.30;;;;;;6306180;22;20003;-82
2022/12/19 02:03:56;;;;;;;13.85;8.82;;;6.60;74.90;;;;;;6304961;22;20030;-83
2022/12/19 02:06:24;;;;;;;15.88;10.32;;;6.60;74.80;;;;;;6305782;22;20072;-82
2022/12/19 02:08:50;;;;;;;17.30;9.85;;;6.60;74.40;;;;;;6306397;22;20452;-83
2022/12/19 02:11:16;;;;;;;16.98;10.60;;;6.70;75.00;;;;;;6304508;22;20326;-83
2022/12/19 02:13:43;;;;;;;16.08;10.43;;;6.70;74.70;;;;;;6305677;22;20011;-83
2022/12/19 02:16:11;;;;;;;17.80;11.27;;;6.70;74.70;;;;;;6305917;22;20394;-83
2022/12/19 02:18:50;;;;;;;15.88;10.25;;;6.60;74.40;;;;;;6305647;22;20076;-83
2022/12/19 02:21:53;;;;;;;15.20;9.88;;;6.60;75.00;;;;;;6328166;22;20359;-82
2022/12/19 02:24:37;;;;;;;16.05;10.50;;;6.60;75.10;;;;;;6336479;22;20480;-82
2022/12/19 02:27:15;;;;;;;15.68;10.40;;;6.60;75.10;;;;;;6336537;22;19999;-82
2022/12/19 02:30:06;;;;;;;14.15;9.52;;;6.60;74.80;;;;;;6336422;22;20041;-82
2022/12/19 02:32:42;;;;;;;15.32;10.27;;;;;;;;;;6336730;22;20010;-81
2022/12/19 02:35:16;;;;;;;14.52;9.65;;;6.60;74.80;;;;;;6334529;22;20003;-81
2022/12/19 02:37:51;;;;;;;15.15;10.10;;;6.70;75.40;;;;;;6335700;22;20006;-81
2022/12/19 02:40:25;;;;;;;14.02;10.00;;;6.60;74.90;;;;;;6336678;22;20048;-80
2022/12/19 02:42:57;;;;;;;16.33;9.73;;;6.60;75.30;;;;;;6336657;22;20094;-81
2022/12/19 02:45:25;;;;;;;16.50;10.88;;;5.90;74.10;;;;;;6337335;22;20415;-83
2022/12/19 02:47:52;;;;;;;15.50;10.38;;;6.70;74.50;;;;;;6309546;22;20006;-82
2022/12/19 02:50:18;;;;;;;15.50;10.02;;;6.60;74.80;;;;;;6336891;22;20010;-81
2022/12/19 02:52:46;;;;;;;13.52;9.27;;;6.70;74.60;;;;;;6336661;22;20002;-82
2022/12/19 02:55:16;;;;;;;16.33;10.65;;;6.60;74.40;;;;;;6309458;22;20034;-82
2022/12/19 02:57:45;;;;;;;;;;;6.70;74.60;;;;;;6337621;22;20108;-83
2022/12/19 03:00:19;;;;;;;15.50;8.93;;;6.70;74.70;;;;;;6337246;22;19899;-83
2022/12/19 03:02:50;;;;;;;15.27;9.65;;;6.70;74.70;;;;;;6336706;22;20029;-82
2022/12/19 03:05:16;;;;;;;14.88;9.90;;;;;;;;;;6309668;22;20018;-83
2022/12/19 03:07:54;;;;;;;17.58;11.27;;;6.40;74.80;;;;;;6337453;22;20003;-82
2022/12/19 03:10:56;;;;;;;17.88;11.52;;;6.30;75.50;;;;;;6336822;22;20010;-82
2022/12/19 03:13:32;;;;;;;21.25;12.38;;;6.00;76.10;;;;;;6309446;22;20056;-86
2022/12/19 03:16:00;;;;;;;14.70;9.93;;;6.00;76.10;;;;;;6337044;22;20083;-84
2022/12/19 03:18:27;;;;;;;17.05;12.07;;;5.70;77.50;;;;;;6337249;22;20005;-84
2022/12/19 03:21:11;;;;;;;17.13;11.50;;;5.60;77.40;;;;;;6336859;22;20038;-84
2022/12/19 03:23:38;;;;;;;16.55;10.38;;;5.60;78.00;;;;;;6336929;22;20055;-83
2022/12/19 03:26:09;;;;;;;14.73;9.73;;;5.70;77.30;;;;;;6336761;22;19995;-84
2022/12/19 03:28:55;;;;;;;16.55;9.98;;;5.80;77.90;;;;;;6335898;22;20006;-84
2022/12/19 03:31:24;;;;;;;15.13;9.68;;;5.90;77.80;;;;;;6245825;22;20006;-83
2022/12/19 03:33:57;;;;;;;14.15;9.70;;;6.00;78.00;;;;;;6336252;22;20055;-83
2022/12/19 03:36:53;;;;;;;16.25;9.60;;;6.10;77.40;;;;;;6309115;22;20099;-83
2022/12/19 03:39:22;;;;;;;14.68;9.93;;;6.10;76.90;;;;;;6334185;22;20038;-83
2022/12/19 03:44:37;;;;;;;15.07;9.30;;;6.00;76.90;;;;;;6335759;22;20627;-83
2022/12/19 03:47:14;;;;;;;18.23;11.82;;;6.10;77.00;;;;;;6336206;22;20061;-83
2022/12/19 03:49:40;;;;;;;15.75;10.02;;;6.20;76.90;;;;;;6336387;22;20010;-83
2022/12/19 03:52:05;;;;;;;16.88;10.07;;;6.10;77.20;;;;;;6336166;22;20669;-83
2022/12/19 03:54:38;;;;;;;16.73;10.50;;;6.10;76.90;;;;;;6335548;22;19999;-83
2022/12/19 03:57:54;;;;;;;16.08;10.07;;;6.10;77.10;;;;;;6336531;22;20026;-83
2022/12/19 04:00:20;;;;;;;15.95;9.73;;;6.10;77.20;;;;;;6309179;22;20021;-81
2022/12/19 04:02:49;;;;;;;13.77;8.50;;;;;;;;;;6336621;22;20374;-82
2022/12/19 04:05:20;;;;;;;15.50;10.20;;;6.10;76.80;;;;;;6335120;22;20430;-82
2022/12/19 04:07:46;;;;;;;13.23;8.85;;;6.20;76.80;;;;;;6336207;22;20070;-83
2022/12/19 04:10:17;;;;;;;14.27;9.15;;;6.20;77.20;;;;;;6335998;22;20451;-83
2022/12/19 04:12:49;;;;;;;16.45;10.00;;;6.20;77.00;;;;;;6336245;22;20003;-83
2022/12/19 04:15:15;;;;;;;13.35;9.20;;;;;;;;;;6335927;22;19999;-83
2022/12/19 04:17:49;;;;;;;13.88;9.38;;;6.20;76.50;;;;;;6336983;22;20026;-86
2022/12/19 04:20:18;;;;;;;14.07;9.25;;;6.10;76.80;;;;;;6336746;22;20015;-87
2022/12/19 04:22:48;;;;;;;14.52;9.43;;;6.10;76.70;;;;;;6337190;22;20002;-82
2022/12/19 04:25:20;;;;;;;16.60;9.38;;;6.10;77.30;;;;;;6336021;22;20550;-81
2022/12/19 04:27:54;;;;;;;15.70;9.20;;;6.00;77.40;;;;;;6336334;22;20338;-82
2022/12/19 04:30:20;;;;;;;14.40;9.38;;;6.20;77.30;;;;;;6336262;22;20010;-81
2022/12/19 04:32:47;;;;;;;15.05;9.80;;;6.10;77.70;;;;;;6336242;22;19999;-80
2022/12/19 04:35:13;;;;;;;15.00;9.48;;;6.20;77.20;;;;;;6335622;22;20409;-81
2022/12/19 04:37:39;;;;;;;12.85;8.57;;;6.20;77.50;;;;;;6336642;22;20314;-80
2022/12/19 04:40:07;;;;;;;14.93;9.90;;;6.30;77.40;;;;;;6338115;22;20023;-80
2022/12/19 04:42:33;;;;;;;14.02;9.75;;;6.30;77.50;;;;;;6338063;22;20025;-82
2022/12/19 04:44:59;;;;;;;14.70;9.48;;;6.30;77.20;;;;;;6338179;22;20095;-82
2022/12/19 04:47:25;;;;;;;15.25;9.43;;;6.30;76.80;;;;;;6337265;22;20444;-82
2022/12/19 04:49:50;;;;;;;14.02;8.93;;;6.20;76.50;;;;;;6338035;22;20002;-81
2022/12/19 04:52:16;;;;;;;13.63;9.25;;;6.20;77.10;;;;;;6337915;22;20074;-82
2022/12/19 04:54:42;;;;;;;11.85;8.48;;;6.10;77.20;;;;;;6337328;22;20357;-81
2022/12/19 04:57:07;;;;;;;13.43;9.10;;;6.10;77.30;;;;;;6338245;22;19994;-80
2022/12/19 04:59:33;;;;;;;13.95;8.48;;;6.10;77.50;;;;;;6337960;22;20026;-80
2022/12/19 05:01:59;;;;;;;14.95;9.57;;;6.20;77.80;;;;;;6338909;22;20082;-81
2022/12/19 05:04:25;;;;;;;14.15;9.43;;;;;;;;;;6337696;22;20007;-80
2022/12/19 05:06:51;;;;;;;14.85;8.55;;;6.10;76.90;;;;;;6338649;22;20002;-81
2022/12/19 05:09:17;;;;;;;14.90;9.80;;;6.00;77.30;;;;;;6338547;22;20007;-81
2022/12/19 05:11:42;;;;;;;14.98;9.02;;;5.90;77.50;;;;;;6338089;22;20010;-81
2022/12/19 05:14:09;;;;;;;13.23;8.48;;;;;;;;;;6337716;22;20448;-81
2022/12/19 05:16:34;;;;;;;15.63;10.10;;;5.90;77.40;;;;;;6337327;22;20017;-81
2022/12/19 05:19:00;;;;;;;15.07;9.65;;;6.00;77.80;;;;;;6336900;22;20003;-81
2022/12/19 05:21:26;;;;;;;13.65;8.45;;;6.00;77.80;;;;;;6337729;22;20015;-82
2022/12/19 05:23:52;;;;;;;13.85;9.25;;;6.10;77.70;;;;;;6338086;22;19999;-81
2022/12/19 05:26:18;;;;;;;13.93;8.50;;;6.20;77.60;;;;;;6337158;22;19995;-81
2022/12/19 05:28:44;;;;;;;12.07;8.52;;;6.20;77.40;;;;;;6309985;22;20029;-81
2022/12/19 05:31:16;;;;;;;13.45;8.48;;;6.20;77.40;;;;;;6337516;22;20401;-81
2022/12/19 05:33:42;;;;;;;13.70;9.30;;;6.20;76.80;;;;;;6337481;22;20003;-83
2022/12/19 05:36:08;;;;;;;14.32;8.85;;;6.20;77.10;;;;;;6337814;22;20082;-83
2022/12/19 05:38:35;;;;;;;14.27;8.88;;;6.30;77.20;;;;;;6337380;22;20003;-83
2022/12/19 05:41:13;;;;;;;12.95;8.85;;;6.30;76.90;;;;;;6337472;22;20038;-83
2022/12/19 05:43:39;;;;;;;14.68;8.77;;;6.30;76.70;;;;;;6337424;22;19995;-85
2022/12/19 05:46:05;;;;;;;16.13;10.18;;;6.20;75.70;;;;;;6337944;22;20002;-83
2022/12/19 05:48:31;;;;;;;15.98;10.48;;;6.10;76.90;;;;;;6336934;22;20006;-83
2022/12/19 05:50:57;;;;;;;14.50;9.52;;;6.00;76.90;;;;;;6337375;22;20448;-82
2022/12/19 05:53:23;;;;;;;16.95;10.07;;;6.00;77.30;;;;;;6337673;22;19999;-83
2022/12/19 05:55:49;;;;;;;18.33;11.35;;;5.90;77.60;;;;;;6337022;22;20011;-81
2022/12/19 05:58:18;;;;;;;15.93;10.07;;;5.80;77.40;;;;;;6336829;22;20406;-81
2022/12/19 06:00:44;;;;;;;17.27;9.73;;;;;;;;;;6337556;22;20087;-81
2022/12/19 06:03:10;;;;;;;12.82;8.23;;;5.80;77.60;;;;;;6337849;22;19999;-81
2022/12/19 06:05:37;;;;;;;13.30;8.45;;;5.80;78.50;;;;;;6339023;22;20432;-80
2022/12/19 06:08:03;;;;;;;13.82;9.18;;;5.80;78.30;;;;;;6337988;22;19999;-81
2022/12/19 06:10:29;;;;;;;18.95;10.02;;;5.80;78.20;;;;;;6337428;22;20010;-78
2022/12/19 06:12:54;;;;;;;14.73;9.98;;;5.90;78.20;;;;;;6337987;22;20629;-78
2022/12/19 06:15:20;;;;;;;13.68;9.40;;;5.90;78.00;;;;;;6337350;22;20336;-78
2022/12/19 06:17:46;;;;;;;15.93;8.90;;;5.90;78.00;;;;;;6336902;22;20045;-80
2022/12/19 06:20:11;;;;;;;12.40;8.82;;;5.90;78.00;;;;;;6335742;22;20329;-79
2022/12/19 06:22:37;;;;;;;14.57;9.25;;;5.90;78.10;;;;;;6337108;22;19995;-78
2022/12/19 06:25:03;;;;;;;13.48;9.05;;;6.00;78.20;;;;;;6337352;22;19995;-77
2022/12/19 06:27:29;;;;;;;19.25;8.85;;;6.10;77.50;;;;;;6337264;22;20022;-78
2022/12/19 06:29:54;;;;;;;14.75;9.68;;;6.10;77.50;;;;;;6335697;22;20471;-78
2022/12/19 06:32:20;;;;;;;14.40;8.55;;;6.20;77.50;;;;;;6337256;22;20007;-79
2022/12/19 06:34:46;;;;;;;15.20;8.65;;;6.20;77.90;;;;;;6337610;22;19999;-78
2022/12/19 06:37:11;;;;;;;15.02;10.05;;;6.30;77.20;;;;;;6336020;22;20010;-81
2022/12/19 06:39:37;;;;;;;15.13;9.35;;;6.30;77.40;;;;;;6335242;22;20011;-86
2022/12/19 06:44:47;;;;;;;13.38;8.55;;;6.40;77.10;;;;;;6336685;22;20014;-83
2022/12/19 06:47:12;;;;;;;12.43;8.13;;;6.40;77.50;;;;;;6337862;22;19999;-84
2022/12/19 06:49:38;;;;;;;13.80;7.88;;;6.40;77.60;;;;;;6334812;22;20026;-84
2022/12/19 06:52:04;;;;;;;12.57;8.70;;;6.40;77.10;;;;;;6338093;22;20431;-84
2022/12/19 06:54:30;;;;;;;14.88;8.48;;;6.50;76.90;;;;;;6337371;22;20005;-84
2022/12/19 06:56:56;;;;;;;12.52;8.65;;;6.50;77.00;;;;;;6339264;22;20002;-83
2022/12/19 06:59:22;;;;;;;15.13;8.68;;;6.40;76.20;;;;;;6341400;22;20005;-83
2022/12/19 07:01:48;;;;;;;14.30;8.57;;;;;;;;;;6337713;22;19999;-83
2022/12/19 07:04:18;;;;;;;14.30;8.25;;;6.60;75.80;;;;;;6313318;22;20037;-84
2022/12/19 07:06:44;;;;;;;;;;;6.50;76.20;;;;;;6338986;22;20003;-78
2022/12/19 07:09:09;;;;;;;12.10;7.75;;;6.50;77.10;;;;;;6339077;22;19921;-83
2022/12/19 07:11:35;;;;;;;16.80;8.98;;;6.60;75.90;;;;;;6312106;22;20298;-83
2022/12/19 07:14:01;;;;;;;12.70;8.50;;;6.60;76.40;;;;;;6337934;22;20469;-83
2022/12/19 07:16:27;;;;;;;14.15;10.07;;;6.60;75.80;;;;;;6338402;22;20263;-90
2022/12/19 07:18:53;;;;;;;13.07;8.63;;;6.60;75.50;;;;;;6309995;22;20007;-90
2022/12/19 07:21:21;;;;;;;14.07;9.77;;;6.60;76.00;;;;;;6344585;22;20014;-85
2022/12/19 07:23:46;;;;;;;18.13;10.02;;;6.50;75.50;;;;;;6314317;22;20006;-87
2022/12/19 07:26:12;;;;;;;14.45;9.40;;;6.30;75.50;;;;;;6338236;22;19998;-87
2022/12/19 07:28:39;;;;;;;15.18;9.68;;;6.30;75.70;;;;;;6338090;22;20027;-83
2022/12/19 07:31:04;;;;;;;13.73;9.25;;;6.20;76.20;;;;;;6337971;22;20036;-83
2022/12/19 07:33:30;;;;;;;13.68;9.32;;;6.30;76.80;;;;;;6337838;22;20068;-83
2022/12/19 07:35:56;;;;;;;15.52;9.57;;;6.20;76.60;;;;;;6337676;22;19998;-83
2022/12/19 07:38:21;;;;;;;16.15;9.38;;;6.20;76.70;;;;;;6337892;22;20006;-83
2022/12/19 07:40:47;;;;;;;13.18;8.73;;;6.20;77.10;;;;;;6309550;22;20003;-84
2022/12/19 07:43:13;;;;;;;13.77;8.95;;;6.20;77.20;;;;;;6337858;22;20006;-83
2022/12/19 07:45:38;;;;;;;17.55;9.43;;;6.20;77.10;;;;;;6336415;22;20329;-83
2022/12/19 07:48:05;;;;;;;14.45;9.13;;;6.20;77.10;;;;;;6335440;22;20084;-83
2022/12/19 07:50:31;;;;;;;12.15;8.30;;;6.20;76.90;;;;;;6337722;22;20031;-83
2022/12/19 07:52:58;;;;;;;17.75;10.00;;;6.20;77.20;;;;;;6339461;22;20005;-83
2022/12/19 07:55:25;;;;;;;12.80;8.85;;;6.30;76.80;;;;;;6311167;22;20006;-82
2022/12/19 07:57:52;;;;;;;14.27;9.35;;;;;;;;;;6337026;22;20003;-84
2022/12/19 08:00:18;;;;;;;12.98;8.38;;;;;;;;;;6337107;22;20062;-81
2022/12/19 08:02:44;;;;;;;12.93;8.50;;;6.50;76.70;;;;;;6337873;22;19999;-82
2022/12/19 08:05:10;;;;;;;12.52;8.35;;;6.50;77.00;;;;;;6337431;22;19999;-82
2022/12/19 08:07:36;;;;;;;14.48;8.55;;;6.60;76.70;;;;;;6338306;22;19994;-82
2022/12/19 08:10:02;;;;;;;11.73;8.48;;;6.70;77.00;;;;;;6309251;22;20007;-82
2022/12/19 08:12:27;;;;;;;13.40;8.30;;;6.80;76.10;;;;;;6338708;22;20074;-83
2022/12/19 08:14:53;;;;;;;12.63;8.60;;;6.90;76.20;;;;;;6339364;22;20052;-83
2022/12/19 08:17:19;;;;;;;13.75;8.43;;;6.90;75.70;;;;;;6340943;22;20003;-82
2022/12/19 08:19:44;;;;;;;15.00;8.40;;;7.00;75.20;;;;;;6339962;22;20005;-82
2022/12/19 08:22:11;;;;;;;14.77;8.02;;;;;;;;;;6311226;22;20010;-81
2022/12/19 08:24:37;;;;;;;13.32;7.85;;;;;;;;;;6311032;22;20365;-82
2022/12/19 08:27:03;;;;;;;12.48;7.78;;;7.10;74.60;;;;;;6311499;22;20681;-82
2022/12/19 08:29:29;;;;;;;11.73;7.68;;;;;;;;;;6339710;22;19999;-83
2022/12/19 08:31:54;;;;;;;12.68;7.68;;;7.20;74.10;;;;;;6314068;22;20504;-83
2022/12/19 08:34:20;;;;;;;11.57;7.68;;;7.20;73.90;;;;;;6338525;22;20034;-84
2022/12/19 08:36:46;;;;;;;13.07;8.60;;;;;;;;;;6337240;22;20006;-83
2022/12/19 08:39:12;;;;;;;12.20;8.02;;;7.30;73.60;;;;;;6339754;22;20005;-83
2022/12/19 08:41:38;;;;;;;13.40;8.32;;;;;;;;;;6340932;22;19999;-84
2022/12/19 08:44:04;;;;;;;12.02;8.15;;;7.30;73.80;;;;;;6338907;22;19995;-83
2022/12/19 08:46:29;;;;;;;12.02;7.68;;;7.40;74.00;;;;;;6339320;22;20354;-83
2022/12/19 08:48:55;;;;;;;12.20;7.97;;;7.40;73.40;;;;;;6340037;22;20282;-83
2022/12/19 08:51:22;;;;;;;11.43;7.95;;;;;;;;;;6333921;22;20302;-83
2022/12/19 08:53:58;;;;;;;11.95;8.02;;;7.40;73.50;;;;;;6338848;22;20360;-83
2022/12/19 08:56:24;;;;;;;11.07;7.88;;;7.50;72.80;;;;;;6311559;22;20002;-84
2022/12/19 08:58:54;;;;;;;11.82;7.82;;;7.50;72.70;;;;;;6338297;22;20309;-82
2022/12/19 09:01:22;;;;;;;;;;;7.50;72.60;;;;;;6309155;22;20059;-82
2022/12/19 09:03:48;;;;;;;14.23;7.65;;;;;;;;;;6334420;22;20316;-83
2022/12/19 09:06:15;;;;;;;12.23;8.52;;;7.60;72.20;;;;;;6337479;22;20007;-84
2022/12/19 09:08:42;;;;;;;15.90;10.20;;;7.30;71.60;;;;;;6339740;22;20003;-82
2022/12/19 09:11:11;;;;;;;14.13;8.77;;;7.30;72.50;;;;;;6338418;22;20006;-83
2022/12/19 09:13:38;;;;;;;12.73;8.38;;;7.30;72.50;;;;;;6335798;22;19999;-80
2022/12/19 09:16:07;;;;;;;13.85;8.60;;;7.40;73.20;;;;;;6336611;22;20007;-81
2022/12/19 09:18:33;;;;;;;18.23;8.85;;;7.40;73.20;;;;;;6333990;22;20310;-82
2022/12/19 09:21:00;;;;;;;11.15;7.80;;;7.40;73.90;;;;;;6337838;22;20014;-82
2022/12/19 09:23:27;;;;;;;16.73;8.77;;;7.50;73.90;;;;;;6338026;22;20079;-83
2022/12/19 09:25:55;;;;;;;12.57;8.05;;;7.50;74.00;;;;;;6337491;22;20060;-82
2022/12/19 09:28:21;;;;;;;14.68;9.32;;;7.50;73.10;;;;;;6337926;22;20105;-82
2022/12/19 09:30:58;;;;;;;19.23;10.43;;;7.50;73.60;;;;;;6337952;22;20003;-82
2022/12/19 09:33:25;;;;;;;16.05;8.65;;;;;;;;;;6337670;22;20455;-83
2022/12/19 09:35:52;;;;;;;12.95;8.80;;;7.30;71.90;;;;;;6337610;22;20405;-82
2022/12/19 09:38:18;;;;;;;23.38;8.43;;;7.30;73.20;;;;;;6338598;22;20006;-82
2022/12/19 09:41:22;;;;;;;14.55;8.63;;;7.40;73.00;;;;;;6338992;22;20021;-80
2022/12/19 09:43:48;;;;;;;12.00;8.07;;;7.50;73.20;;;;;;6331428;22;20003;-83
2022/12/19 09:46:32;;;;;;;15.55;7.78;;;7.50;73.50;;;;;;6338471;22;20023;-80
2022/12/19 09:49:00;;;;;;;12.77;7.75;;;7.70;73.40;;;;;;6338096;22;20006;-81
2022/12/19 09:51:52;;;;;;;12.00;8.13;;;7.80;73.00;;;;;;6338436;22;20006;-82
2022/12/19 09:54:36;;;;;;;12.00;6.93;;;7.80;73.30;;;;;;6336473;22;20489;-81
2022/12/19 09:57:09;;;;;;;11.82;7.65;;;7.90;73.60;;;;;;6338168;22;20094;-81
2022/12/19 09:59:45;;;;;;;12.55;7.80;;;8.00;73.70;;;;;;6337297;22;20455;-80
2022/12/19 10:02:36;;;;;;;11.10;7.40;;;8.10;73.60;;;;;;6337644;22;20002;-80
2022/12/19 10:05:40;;;;;;;13.43;9.02;;;8.20;71.90;;;;;;6336915;22;20070;-80
2022/12/19 10:08:39;;;;;;;14.32;9.02;;;8.10;70.50;;;;;;6337277;22;19999;-80
2022/12/19 10:11:05;;;;;;;12.95;8.20;;;8.10;71.00;;;;;;6338812;22;20077;-80
2022/12/19 10:13:49;;;;;;;12.07;7.68;;;8.00;71.90;;;;;;6335757;22;20064;-78
2022/12/19 10:16:45;;;;;;;12.95;8.23;;;8.00;71.70;;;;;;6337693;22;20073;-81
2022/12/19 10:19:23;;;;;;;12.18;7.57;;;8.10;70.90;;;;;;6337839;22;20068;-82
2022/12/19 10:22:01;;;;;;;13.23;8.05;;;8.20;71.80;;;;;;6339005;22;20083;-80
2022/12/19 10:24:36;;;;;;;10.57;7.25;;;8.30;71.70;;;;;;6286936;22;20456;-81
2022/12/19 10:27:27;;;;;;;13.52;8.32;;;8.30;71.70;;;;;;6339138;22;20026;-82
2022/12/19 10:30:00;;;;;;;13.55;8.32;;;8.40;72.00;;;;;;6311264;22;20081;-82
2022/12/19 10:32:36;;;;;;;9.80;7.57;;;8.50;72.10;;;;;;6338069;22;19999;-81
2022/12/19 10:35:15;;;;;;;14.27;7.35;;;8.60;71.80;;;;;;6338081;22;19998;-79
2022/12/19 10:38:02;;;;;;;12.25;7.68;;;8.80;72.30;;;;;;6338776;22;20339;-81
2022/12/19 10:40:36;;;;;;;12.10;7.63;;;8.80;71.00;;;;;;6339290;22;20052;-81
2022/12/19 10:43:30;;;;;;;11.30;7.50;;;8.90;70.90;;;;;;6339991;22;20329;-80
2022/12/19 10:46:09;;;;;;;12.45;8.05;;;8.90;70.70;;;;;;6340575;22;19995;-82
2022/12/19 10:48:35;;;;;;;11.10;7.00;;;9.00;70.30;;;;;;6338570;22;20066;-82
2022/12/19 10:51:01;;;;;;;10.80;6.70;;;9.10;70.40;;;;;;6310793;22;20035;-81
2022/12/19 10:53:31;;;;;;;10.48;6.50;;;9.20;70.10;;;;;;6310666;22;20052;-81
2022/12/19 10:56:10;;;;;;;14.60;7.28;;;9.20;69.80;;;;;;6338202;22;20302;-81
2022/12/19 10:58:40;;;;;;;10.35;7.28;;;9.30;68.90;;;;;;6316290;22;20010;-80
2022/12/19 11:01:11;;;;;;;8.93;7.18;;;9.40;69.00;;;;;;6348240;22;20006;-81
2022/12/19 11:03:40;;;;;;;11.48;7.47;;;9.40;66.60;;;;;;6339157;22;19998;-81
2022/12/19 11:06:45;;;;;;;9.63;6.60;;;9.30;66.80;;;;;;6338996;22;19998;-81
2022/12/19 11:09:21;;;;;;;10.35;7.07;;;9.20;67.30;;;;;;6339398;22;20003;-82
2022/12/19 11:11:59;;;;;;;11.45;7.68;;;9.20;67.70;;;;;;6338042;22;20078;-81
2022/12/19 11:14:28;;;;;;;11.52;7.53;;;9.20;67.00;;;;;;6338008;22;20021;-82
2022/12/19 11:16:53;;;;;;;10.98;7.30;;;9.30;68.00;;;;;;6338049;22;19999;-82
2022/12/19 11:19:23;;;;;;;9.90;6.85;;;9.30;68.10;;;;;;6338780;22;20006;-82
2022/12/19 11:21:49;;;;;;;10.65;7.68;;;9.40;68.10;;;;;;6338215;22;20006;-82
2022/12/19 11:24:28;;;;;;;13.63;7.82;;;9.40;68.20;;;;;;6338879;22;20073;-82
2022/12/19 11:26:54;;;;;;;10.10;7.13;;;9.50;67.60;;;;;;6339389;22;20078;-81
2022/12/19 11:29:20;;;;;;;10.75;7.40;;;9.50;68.10;;;;;;6339433;22;20013;-82
2022/12/19 11:31:47;;;;;;;9.48;6.60;;;9.50;66.90;;;;;;6339415;22;20002;-81
2022/12/19 11:34:20;;;;;;;15.68;7.75;;;9.50;67.70;;;;;;6338623;22;20056;-78
2022/12/19 11:37:01;;;;;;;10.95;7.30;;;9.50;66.20;;;;;;6311006;22;20340;-78
2022/12/19 11:40:01;;;;;;;10.38;7.18;;;9.50;66.90;;;;;;6338746;22;20417;-79
2022/12/19 11:42:53;;;;;;;10.52;6.72;;;9.40;66.90;;;;;;6310256;22;20076;-78
2022/12/19 11:45:49;;;;;;;9.27;6.80;;;9.40;66.30;;;;;;6309600;22;20006;-79
2022/12/19 11:48:19;;;;;;;9.75;6.75;;;9.40;67.20;;;;;;6337979;22;20384;-79
2022/12/19 11:51:00;;;;;;;9.95;6.80;;;9.40;66.70;;;;;;6284445;22;20007;-79
2022/12/19 11:53:34;;;;;;;10.60;6.45;;;9.40;66.80;;;;;;6338581;22;20006;-79
2022/12/19 11:56:07;;;;;;;10.63;7.22;;;9.30;67.30;;;;;;6337453;22;20003;-80
2022/12/19 11:58:33;;;;;;;10.27;6.82;;;9.30;66.60;;;;;;6335570;22;20009;-78
2022/12/19 12:01:19;;;;;;;11.43;6.30;;;9.30;66.60;;;;;;6337985;22;20077;-78
2022/12/19 12:04:07;;;;;;;9.75;6.72;;;9.20;66.00;;;;;;6337915;22;20026;-79
2022/12/19 12:06:44;;;;;;;12.85;7.50;;;9.20;66.40;;;;;;6337731;22;20021;-79
2022/12/19 12:09:51;;;;;;;11.55;7.50;;;9.30;66.10;;;;;;6334776;22;19998;-78
2022/12/19 12:12:28;;;;;;;9.98;6.07;;;9.20;65.80;;;;;;6334356;22;20038;-79
2022/12/19 12:15:14;;;;;;;10.27;7.18;;;9.10;66.50;;;;;;6334988;22;20030;-81
2022/12/19 12:18:00;;;;;;;12.57;7.80;;;9.10;67.00;;;;;;6312639;22;20010;-79
2022/12/19 12:20:39;;;;;;;10.57;7.22;;;9.10;67.30;;;;;;6333157;22;20056;-82
2022/12/19 12:23:27;;;;;;;10.70;6.95;;;9.20;67.80;;;;;;6335154;22;21118;-81
2022/12/19 12:26:14;;;;;;;10.88;7.50;;;9.20;67.60;;;;;;6335247;22;19995;-81
2022/12/19 12:29:08;;;;;;;8.93;6.47;;;9.20;65.50;;;;;;6334690;22;20010;-80
2022/12/19 12:31:45;;;;;;;11.55;6.88;;;9.00;65.90;;;;;;6207994;23;20119;-80
2022/12/19 12:34:25;;;;;;;11.32;7.57;;;9.00;66.90;;;;;;6334014;22;20851;-80
2022/12/19 12:37:04;;;;;;;11.18;7.82;;;9.00;67.10;;;;;;6335084;22;20106;-82
2022/12/19 12:39:46;;;;;;;15.68;7.80;;;9.00;67.20;;;;;;6335109;22;20033;-81
2022/12/19 12:42:58;;;;;;;12.40;7.57;;;9.00;65.40;;;;;;6335213;22;20078;-80
2022/12/19 12:45:41;;;;;;;12.10;8.05;;;9.00;65.20;;;;;;6304765;22;20026;-81
2022/12/19 12:48:21;;;;;;;11.10;7.45;;;8.80;65.00;;;;;;6306863;22;20013;-80
2022/12/19 12:50:48;;;;;;;11.50;7.28;;;8.80;65.80;;;;;;6334630;22;19998;-80
2022/12/19 12:53:18;;;;;;;10.90;6.95;;;8.80;66.90;;;;;;6307948;22;20003;-81
2022/12/19 12:55:44;;;;;;;11.20;7.35;;;8.90;66.40;;;;;;6336953;22;19995;-82
2022/12/19 12:58:44;;;;;;;13.50;7.15;;;8.90;66.70;;;;;;6336753;22;19999;-80
2022/12/19 13:01:16;;;;;;;13.80;8.10;;;9.00;67.30;;;;;;6336348;22;20417;-81
2022/12/19 13:04:02;;;;;;;13.95;8.32;;;9.00;67.10;;;;;;6334737;22;20310;-81
2022/12/19 13:06:35;;;;;;;13.23;7.50;;;9.20;67.60;;;;;;6307997;22;20024;-81
2022/12/19 13:09:11;;;;;;;11.07;7.75;;;;;;;;;;6336731;22;20003;-82
2022/12/19 13:14:33;;;;;;;14.38;8.95;;;9.20;67.40;;;;;;6337266;22;20421;-81
2022/12/19 13:17:07;;;;;;;11.52;7.25;;;9.30;66.80;;;;;;6336180;22;20006;-81
2022/12/19 13:19:38;;;;;;;12.98;8.23;;;9.20;66.90;;;;;;6308064;22;20419;-81
2022/12/19 13:22:03;;;;;;;12.60;7.45;;;9.20;65.90;;;;;;6335984;22;20003;-82
2022/12/19 13:24:40;;;;;;;11.85;7.85;;;9.20;66.90;;;;;;6336115;22;20003;-81
2022/12/19 13:27:18;;;;;;;11.40;6.93;;;9.30;67.10;;;;;;6336223;22;20440;-80